Fort Worth, TX (76137)

1:35 PM CDT on April 28, 2015 (GMT -0500)
North Ft Worth | | Change Station
CLOSE
Current Station
Personal Weather Station
Location: Haltom City, TX
Elevation: 600 ft
Nearby Weather Stations

Elev 600 ft 32.86 °N, 97.28 °W | Updated 49 seconds ago

Overcast
Overcast
53.5 °F
Feels Like 53.5 °F
N
1.0
Wind Variable Wind from North
Gusts 7.0 mph

Today
High -- | Low -- °F
--% Chance of Precip.
Yesterday
High -- | Low -- °F
Precip. -- in
6:45 AM 8:08 PM
Waxing Gibbous, 75% visible
Pressure 30.08 in
Visibility 10.0 miles
Clouds Few 1400 ft
Scattered Clouds 1800 ft
Overcast 4000 ft
Dew Point 46 °F
Humidity 76%
Rainfall 0.00 in
Snow Depth Not available.
UV 2.0 out of 12
Pollen 4.00 out of 12
Air Quality Not available.
Flu Activity Local Activity
SPECI KFTW 281826Z 02015KT 10SM FEW014 SCT018 OVC040 13/10 A3008 RMK AO2 T01280100

More Conditions Fewer Conditions

Pressure 30.08 in
Visibility 10.0 miles
Clouds Few 1400 ft
Scattered Clouds 1800 ft
Overcast 4000 ft
Dew Point 46 °F
Humidity 76%
Rainfall 0.00 in
Snow Depth Not available.
UV 2.0 out of 12
Pollen 4.00 out of 12
Air Quality Not available.
Flu Activity Local Activity
SPECI KFTW 281826Z 02015KT 10SM FEW014 SCT018 OVC040 13/10 A3008 RMK AO2 T01280100

More Conditions Fewer Conditions

Nowcast | as of 10:30 am CDT on April 28, 2015

Areas of light to moderate rain will continue mainly affecting areas east of a Gainesville...Fort Worth...Gatesville line through 2 PM. Elsewhere...a few sprinkles will continue under cloudy skies. Rainfall totals with any moderate rainfall over central Texas will average between 1/10 and 1/4 of an inch...while a trace to a few hundreths will occur elsewhere. In addition to the rain...brisk...cloudy and cool conditions will continue with north-northeast winds 10 to 20 mph. Temperatures will creep into the upper 50s and lower 60s this afternoon.

×

10-Day Weather Forecast

Almanac

Astronomy

Apr. 28, 2015 Rise Set
Actual Time
Civil Twilight
Nautical Twilight
Astronomical Twilight
Moon
Length of Visible Light
Length of Day
Tomorrow will be .
, % of the Moon is Illuminated

Today's Extremes

State Highs State Lows

Community

WunderPhotos

Upload Photos

1,817,723 photos uploaded!

WunderBlogs® & News

Nearby

Air Quality

  Air Quality AQ Index Pollutant
Not available.

Snow Depth

Station Depth Elevation

Earthquake Activity

City Distance Mag. Time & Date
Minimum magnitude displayed is 2.5.

Coastal Water Temperatures

Place Temperature

Stations

Nearby Weather Stations

Station Location Temp. Windchill Dew Point Humidity Wind Precip. Elev Updated Type